Costa Rica, Brazil
Current Conditions -  °F | °C
As of 8:00 AM on Monday 22 Dec 2014 (Local Time) from SBCG Reporting Station
Light Rain Light Rain  
Wind Chill: 72°   Ceiling: 500
Heat Index: 72°   Visibility: 6mi
Dew Point: 70°   Wind: 14mph
Humidity: 94%   Direction: 340°NNW
Pressure: NA   Gusts: NA
Location:  18.54°S, 53.13°W
Report Text: SBCG 221100Z 34012KT 9999 -RA BKN005 SCT023 FEW040TCU 22/21 Q1012
Loading
Personal Weather Stations






























Interactive Weather Map New forecast layout! Learn more

10-Day Weather Forecast

Advertisements
Track Severe Weather on mobile